createdAt,value
2023-03-25T00:04:51.258Z,99674.16
2023-03-25T00:10:13.948Z,99667.27
2023-03-25T00:15:36.224Z,99668.44
2023-03-25T00:20:59.736Z,99669.12
2023-03-25T00:26:22.126Z,99658.66
2023-03-25T00:31:44.462Z,99660.95
2023-03-25T00:37:06.755Z,99699.23
2023-03-25T00:42:29.965Z,99704.40
2023-03-25T00:47:52.263Z,99690.72
2023-03-25T00:53:14.693Z,99687.69
2023-03-25T00:58:36.961Z,99676.72
2023-03-25T01:04:03.355Z,99674.89
2023-03-25T01:15:01.308Z,99663.00
2023-03-25T01:20:24.299Z,99662.36
2023-03-25T01:25:46.749Z,99638.97
2023-03-25T01:31:23.681Z,99637.19
2023-03-25T01:36:47.973Z,99641.05
2023-03-25T01:42:20.228Z,99623.45
2023-03-25T01:47:42.666Z,99623.34
2023-03-25T01:53:06.973Z,99628.92
2023-03-25T01:58:32.330Z,99630.02
2023-03-25T02:03:58.511Z,99641.64
2023-03-25T02:09:24.319Z,99634.98
2023-03-25T02:14:49.968Z,99648.58
2023-03-25T02:20:42.775Z,99655.59
2023-03-25T02:26:37.556Z,99652.63
2023-03-25T02:32:15.736Z,99642.91
2023-03-25T02:38:15.774Z,99641.51
2023-03-25T02:44:01.552Z,99629.03
2023-03-25T02:49:31.574Z,99614.63
2023-03-25T02:54:57.733Z,99608.52
2023-03-25T03:00:24.785Z,99598.58
2023-03-25T03:05:50.929Z,99603.11
2023-03-25T03:11:37.133Z,99607.08
2023-03-25T03:17:30.922Z,99604.96
2023-03-25T03:23:13.519Z,99593.37
2023-03-25T03:28:59.796Z,99579.09
2023-03-25T03:34:36.828Z,99599.33
2023-03-25T03:40:01.523Z,99608.80
2023-03-25T03:45:34.759Z,99614.64
2023-03-25T03:51:18.052Z,99608.03
2023-03-25T03:57:02.152Z,99618.70
2023-03-25T04:02:47.995Z,99629.88
2023-03-25T04:08:22.139Z,99634.02
2023-03-25T04:13:48.958Z,99644.88
2023-03-25T04:19:13.498Z,99636.59
2023-03-25T04:24:37.883Z,99647.32
2023-03-25T04:30:17.322Z,99650.20
2023-03-25T04:35:40.840Z,99653.59
2023-03-25T04:41:05.561Z,99653.08
2023-03-25T04:46:30.241Z,99664.05
2023-03-25T04:51:54.945Z,99656.16
2023-03-25T04:57:17.577Z,99658.48
2023-03-25T05:02:40.483Z,99653.27
2023-03-25T05:08:11.843Z,99651.23
2023-03-25T05:13:34.188Z,99650.20
2023-03-25T05:18:56.540Z,99651.59
2023-03-25T05:24:22.031Z,99650.52
2023-03-25T05:29:44.843Z,99650.72
2023-03-25T05:35:07.752Z,99649.66
2023-03-25T05:40:30.231Z,99645.20
2023-03-25T05:45:52.941Z,99654.33
2023-03-25T05:51:18.446Z,99669.20
2023-03-25T05:56:43.359Z,99670.16
2023-03-25T06:02:08.020Z,99675.55
2023-03-25T06:07:31.551Z,99668.04
2023-03-25T06:12:54.496Z,99666.04
2023-03-25T06:18:17.352Z,99674.38
2023-03-25T06:23:40.204Z,99674.42
2023-03-25T06:29:04.368Z,99665.34
2023-03-25T06:34:26.745Z,99650.83
2023-03-25T06:39:50.060Z,99649.28
2023-03-25T06:45:14.149Z,99640.81
2023-03-25T06:50:37.347Z,99648.56
2023-03-25T06:56:02.346Z,99643.09
2023-03-25T07:01:24.634Z,99651.77
2023-03-25T07:06:46.938Z,99646.25
2023-03-25T07:12:09.798Z,99642.77
2023-03-25T07:17:33.272Z,99646.09
2023-03-25T07:22:55.654Z,99642.72
2023-03-25T07:28:18.129Z,99634.70
2023-03-25T07:33:41.025Z,99650.83
2023-03-25T07:39:03.626Z,99648.73
2023-03-25T07:44:25.951Z,99660.20
2023-03-25T07:49:49.882Z,99662.58
2023-03-25T07:55:12.533Z,99653.66
2023-03-25T08:00:37.901Z,99644.23
2023-03-25T08:06:07.199Z,99630.22
2023-03-25T08:11:29.586Z,99636.30
2023-03-25T08:16:52.676Z,99635.57
2023-03-25T08:22:15.368Z,99636.56
2023-03-25T08:27:37.764Z,99638.13
2023-03-25T08:33:00.221Z,99634.05
2023-03-25T08:38:25.577Z,99632.47
2023-03-25T08:43:48.423Z,99616.22
2023-03-25T08:49:12.013Z,99627.25
2023-03-25T08:54:34.851Z,99621.73
2023-03-25T08:59:57.325Z,99622.30
2023-03-25T09:05:20.287Z,99613.81
2023-03-25T09:10:43.793Z,99623.70
2023-03-25T09:16:06.082Z,99624.37
2023-03-25T09:21:28.381Z,99626.38
2023-03-25T09:26:51.614Z,99630.52
2023-03-25T09:32:15.562Z,99630.52
2023-03-25T09:37:38.293Z,99629.52
2023-03-25T09:43:34.282Z,99630.64
2023-03-25T09:49:00.726Z,99632.22
2023-03-25T09:54:37.013Z,99635.75
2023-03-25T10:00:04.477Z,99634.90
2023-03-25T10:05:49.228Z,99642.37
2023-03-25T10:11:41.460Z,99649.58
2023-03-25T10:17:39.282Z,99636.02
2023-03-25T10:23:33.452Z,99638.13
2023-03-25T10:29:01.807Z,99633.77
2023-03-25T10:34:36.200Z,99645.34
2023-03-25T10:40:02.107Z,99627.95
2023-03-25T10:45:36.069Z,99626.70
2023-03-25T10:51:04.920Z,99630.92
2023-03-25T10:56:43.613Z,99622.57
2023-03-25T11:02:08.690Z,99609.41
2023-03-25T11:07:47.721Z,99601.03
2023-03-25T11:13:11.453Z,99602.67
2023-03-25T11:18:45.985Z,99605.52
2023-03-25T11:24:13.005Z,99603.98
2023-03-25T11:29:38.861Z,99587.34
2023-03-25T11:35:04.219Z,99573.75
2023-03-25T11:40:29.981Z,99574.31
2023-03-25T11:46:08.673Z,99569.65
2023-03-25T11:51:35.768Z,99557.81
2023-03-25T11:57:03.284Z,99539.11
2023-03-25T12:02:40.005Z,99538.33
2023-03-25T12:08:10.237Z,99519.98
2023-03-25T12:13:32.721Z,99517.27
2023-03-25T12:19:29.248Z,99513.53
2023-03-25T12:25:27.861Z,99503.50
2023-03-25T12:31:34.076Z,99500.00
2023-03-25T12:37:22.376Z,99503.52
2023-03-25T12:43:04.840Z,99526.30
2023-03-25T12:49:02.346Z,99527.58
2023-03-25T12:54:41.690Z,99546.55
2023-03-25T13:00:26.490Z,99555.12
2023-03-25T13:06:20.426Z,99542.05
2023-03-25T13:11:58.571Z,99532.77
2023-03-25T13:17:46.463Z,99532.12
2023-03-25T13:23:13.174Z,99521.60
2023-03-25T13:28:40.018Z,99514.75
2023-03-25T13:34:40.929Z,99513.67
2023-03-25T13:40:20.212Z,99509.14
2023-03-25T13:46:05.602Z,99498.08
2023-03-25T13:51:29.260Z,99490.08
2023-03-25T13:57:33.627Z,99478.95
2023-03-25T14:03:30.776Z,99460.47
2023-03-25T14:09:27.641Z,99466.25
2023-03-25T14:14:58.352Z,99472.84
2023-03-25T14:20:41.705Z,99471.33
2023-03-25T14:26:10.777Z,99482.44
2023-03-25T14:37:13.462Z,99487.81
2023-03-25T14:42:48.940Z,99483.11
2023-03-25T14:48:23.243Z,99491.72
2023-03-25T14:53:39.477Z,99507.19
2023-03-25T14:59:04.478Z,99489.12
2023-03-25T15:04:38.771Z,99492.22
2023-03-25T15:10:07.831Z,99481.52
2023-03-25T15:16:02.566Z,99473.06
2023-03-25T15:21:30.246Z,99487.63
2023-03-25T15:27:02.714Z,99483.11
2023-03-25T15:32:39.731Z,99480.00
2023-03-25T15:38:16.998Z,99494.82
2023-03-25T15:44:20.404Z,99480.52
2023-03-25T15:50:07.008Z,99482.98
2023-03-25T15:55:42.681Z,99475.44
2023-03-25T16:01:10.169Z,99492.33
2023-03-25T16:06:34.689Z,99471.19
2023-03-25T16:11:59.637Z,99484.58
2023-03-25T16:17:26.088Z,99495.66
2023-03-25T16:22:50.363Z,99496.23
2023-03-25T16:28:21.650Z,99481.05
2023-03-25T16:33:47.440Z,99502.38
2023-03-25T16:39:10.389Z,99502.43
2023-03-25T16:44:37.915Z,99504.72
2023-03-25T16:50:03.441Z,99513.51
2023-03-25T16:55:59.340Z,99506.76
2023-03-25T17:01:23.594Z,99513.39
2023-03-25T17:06:56.350Z,99519.34
2023-03-25T17:12:24.715Z,99523.70
2023-03-25T17:18:02.872Z,99535.54
2023-03-25T17:23:41.829Z,99540.03
2023-03-25T17:29:18.540Z,99547.48
2023-03-25T17:34:45.182Z,99549.74
2023-03-25T17:40:13.144Z,99561.56
2023-03-25T17:45:36.362Z,99576.41
2023-03-25T17:51:07.258Z,99585.11
2023-03-25T17:56:34.107Z,99601.25
2023-03-25T18:01:56.655Z,99593.95
2023-03-25T18:07:21.233Z,99593.80
2023-03-25T18:12:43.780Z,99587.63
2023-03-25T18:18:06.576Z,99581.21
2023-03-25T18:23:30.642Z,99582.95
2023-03-25T18:28:53.313Z,99586.91
2023-03-25T18:34:15.771Z,99591.19
2023-03-25T18:39:40.814Z,99587.92
2023-03-25T18:45:03.155Z,99594.87
2023-03-25T18:50:53.179Z,99589.16
2023-03-25T18:56:19.034Z,99585.53
2023-03-25T19:01:42.808Z,99588.94
2023-03-25T19:07:05.120Z,99579.69
2023-03-25T19:12:27.361Z,99572.77
2023-03-25T19:17:50.639Z,99561.94
2023-03-25T19:23:17.224Z,99556.27
2023-03-25T19:28:42.074Z,99554.59
2023-03-25T19:34:04.307Z,99559.45
2023-03-25T19:39:26.568Z,99565.87
2023-03-25T19:44:52.559Z,99554.86
2023-03-25T19:50:21.618Z,99545.62
2023-03-25T19:55:44.048Z,99541.33
2023-03-25T20:01:07.088Z,99526.17
2023-03-25T20:06:29.439Z,99532.31
2023-03-25T20:11:51.714Z,99533.45
2023-03-25T20:17:14.116Z,99526.88
2023-03-25T20:22:36.421Z,99542.42
2023-03-25T20:27:59.076Z,99539.55
2023-03-25T20:33:21.896Z,99550.28
2023-03-25T20:38:56.134Z,99551.72
2023-03-25T20:44:08.915Z,99554.33
2023-03-25T20:49:32.381Z,99551.15
2023-03-25T20:54:56.144Z,99544.05
2023-03-25T21:00:20.320Z,99535.12
2023-03-25T21:05:44.712Z,99548.88
2023-03-25T21:11:07.970Z,99549.89
2023-03-25T21:16:31.417Z,99546.93
2023-03-25T21:21:55.713Z,99543.16
2023-03-25T21:27:18.213Z,99542.70
2023-03-25T21:32:40.570Z,99540.62
2023-03-25T21:38:04.000Z,99540.41
2023-03-25T21:43:26.643Z,99542.95
2023-03-25T21:48:50.863Z,99524.86
2023-03-25T21:54:14.855Z,99522.58
2023-03-25T21:59:37.134Z,99518.08
2023-03-25T22:05:01.509Z,99513.59
2023-03-25T22:10:24.722Z,99517.95
2023-03-25T22:15:47.256Z,99517.70
2023-03-25T22:21:29.768Z,99527.53
2023-03-25T22:26:52.865Z,99516.86
2023-03-25T22:32:15.118Z,99509.35
2023-03-25T22:37:37.346Z,99517.60
2023-03-25T22:42:59.595Z,99506.08
2023-03-25T22:48:22.004Z,99512.48
2023-03-25T22:53:45.729Z,99514.44
2023-03-25T22:59:10.384Z,99509.35
2023-03-25T23:04:32.796Z,99498.05
2023-03-25T23:09:56.192Z,99499.52
2023-03-25T23:15:18.707Z,99502.07
2023-03-25T23:20:40.928Z,99502.79
2023-03-25T23:26:22.375Z,99502.66
2023-03-25T23:31:47.652Z,99504.36
2023-03-25T23:37:10.634Z,99509.82
2023-03-25T23:42:35.457Z,99506.56
2023-03-25T23:47:57.327Z,99488.95
2023-03-25T23:53:21.217Z,99483.86
2023-03-25T23:58:43.537Z,99491.40
